Strona główna
METAR-TAF:

METAR-TAF

Lotnisko :

Ellsworth Air Force Base

Rapid City / Ellsworth, Dakota Południowa, Stany Zjednoczone

Szerokość geograficzna: 44-09N, Długość geograficzna: 103-06W, wysokość: 999 m

Aktualna obserwacja pogody

Raport powstał 32 minut temu, godzina 18:56 UTC
Wiatr 26 kt od północny zachód w porywach dochodzący do 33 kt
Temperatura 8°C
Wilgotność 36%
Ciśnienie 1010 hPa
Widzialność: 16.1 km
Rozproszone chmury na wysokości 5500 ft
Przerywane chmury na wysokości 7500 ft

METAR: KRCA 111856Z AUTO 31026G33KT 10SM SCT055 BKN075 08/M06 A2983 RMK AO2 PK WND 33034/36 SLP111 T00841058 PNO FZRANO $

czas: 13:28 (19:28 UTC)


TAF: brakujący

Obserwacja i prognoza pogody dla ponad 4000 lotnisk (raport METAR i TAF).

Dostępne stacje oznaczono żółtymi i czerwonymi punktami na mapie.

Najedź kursorem aby zobaczyć nazwę stacji.

Kliknij aby zobaczyć obserwacje i prognozy pogody.

Aby zmienić mapę: kliknij na zielony przycisk z czarnym krzyżykiem, aby powiększyć; na zielony przycisk z myślnikiem, aby pomniejszyć; na zielone strzałki, aby przejść do map sąsiednich.


METAR-TAF: